Time;durP1;ratioP1;P1;durP2;ratioP2;P2;SDS_P1;SDS_P2;PMS_P1;PMS_P2;Temp;Humidity;BMP_temperature;BMP_pressure;BME280_temperature;BME280_humidity;BME280_pressure;Samples;Min_cycle;Max_cycle;Signal;HPM_P1;HPM_P2
2023/03/11 00:00:21;;;;;;;2.67;2.00;;;;;-1.30;92823.00;;;;7395410;19;20203;-74
2023/03/11 00:02:59;;;;;;;2.97;1.90;;;;;-1.30;92830.00;;;;7395579;19;20176;-75
2023/03/11 00:05:36;;;;;;;2.43;2.23;;;;;-1.40;92827.00;;;;7397667;19;20176;-75
2023/03/11 00:08:06;;;;;;;3.63;2.23;;;;;-1.40;92824.00;;;;7398797;19;20113;-75
2023/03/11 00:10:52;;;;;;;3.57;2.23;;;;;-1.30;92830.00;;;;7396543;19;20598;-76
2023/03/11 00:13:19;;;;;;;2.47;2.03;;;;;-1.30;92828.00;;;;7396315;19;20148;-76
2023/03/11 00:15:55;;;;;;;3.53;2.30;;;;;-1.20;92835.00;;;;7398765;19;20145;-74
2023/03/11 00:18:25;;;;;;;4.20;2.20;;;;;-1.30;92830.00;;;;7396365;19;20205;-75
2023/03/11 00:21:00;;;;;;;3.93;1.93;;;;;-1.40;92827.00;;;;7395804;19;20516;-76
2023/03/11 00:23:28;;;;;;;3.77;2.20;;;;;-1.40;92843.00;;;;7397919;19;20188;-74
2023/03/11 00:26:02;;;;;;;5.00;2.30;;;;;-1.40;92849.00;;;;7386347;19;20116;-75
2023/03/11 00:28:37;;;;;;;3.67;2.27;;;;;-1.40;92858.00;;;;7392683;19;20562;-76
2023/03/11 00:31:06;;;;;;;7.47;2.37;;;;;-1.30;92843.00;;;;7396931;19;20507;-75
2023/03/11 00:33:40;;;;;;;4.30;2.40;;;;;-1.30;92838.00;;;;7396927;19;20117;-75
2023/03/11 00:36:17;;;;;;;5.03;2.30;;;;;-1.30;92860.00;;;;7397159;19;20138;-74
2023/03/11 00:38:53;;;;;;;4.07;2.33;;;;;-1.00;92850.00;;;;7396020;19;20145;-74
2023/03/11 00:41:21;;;;;;;5.60;2.87;;;;;-1.30;92847.00;;;;7397179;19;20157;-74
2023/03/11 00:43:55;;;;;;;3.07;2.50;;;;;-1.30;92846.00;;;;7396672;19;20142;-75
2023/03/11 00:46:31;;;;;;;3.17;2.60;;;;;-1.30;92870.00;;;;7397712;19;20113;-74
2023/03/11 00:49:06;;;;;;;2.70;2.37;;;;;-1.30;92861.00;;;;7395662;19;20141;-74
2023/03/11 00:51:40;;;;;;;5.23;2.60;;;;;-1.40;92869.00;;;;7397678;19;20468;-74
2023/03/11 00:54:15;;;;;;;8.17;3.00;;;;;-1.40;92882.00;;;;7395942;19;20591;-75
2023/03/11 00:56:49;;;;;;;4.27;2.57;;;;;-1.40;92879.00;;;;7395486;19;20194;-75
2023/03/11 00:59:24;;;;;;;6.00;2.80;;;;;-1.50;92881.00;;;;7397618;19;20191;-75
2023/03/11 01:01:51;;;;;;;5.30;2.60;;;;;-1.60;92875.00;;;;7394416;19;20129;-75
2023/03/11 01:04:25;;;;;;;4.97;2.80;;;;;-1.40;92890.00;;;;7397027;19;20137;-75
2023/03/11 01:06:52;;;;;;;4.77;3.00;;;;;-1.50;92878.00;;;;7397487;19;20129;-74
2023/03/11 01:09:27;;;;;;;4.20;2.40;;;;;-1.50;92891.00;;;;7395372;19;20660;-74
2023/03/11 01:12:08;;;;;;;4.37;2.60;;;;;-1.30;92886.00;;;;7399736;19;20232;-76
2023/03/11 01:14:35;;;;;;;2.90;2.10;;;;;-1.40;92877.00;;;;7402978;19;20151;-75
2023/03/11 01:17:09;;;;;;;5.20;2.60;;;;;-1.50;92884.00;;;;7402769;19;20200;-76
2023/03/11 01:19:37;;;;;;;3.50;2.73;;;;;-1.40;92882.00;;;;7402825;19;20192;-74
2023/03/11 01:22:04;;;;;;;2.90;2.50;;;;;-1.20;92887.00;;;;7401028;19;20204;-78
2023/03/11 01:24:38;;;;;;;5.77;2.80;;;;;-1.40;92891.00;;;;7399217;19;20116;-77
2023/03/11 01:27:13;;;;;;;3.67;2.40;;;;;-1.50;92899.00;;;;7401670;19;20136;-75
2023/03/11 01:29:40;;;;;;;3.10;2.60;;;;;-1.50;92905.00;;;;7404170;19;20137;-75
2023/03/11 01:32:14;;;;;;;6.23;2.67;;;;;-1.60;92890.00;;;;7401989;19;20163;-75
2023/03/11 01:34:41;;;;;;;3.00;2.50;;;;;-1.60;92904.00;;;;7403881;19;20121;-77
2023/03/11 01:37:15;;;;;;;4.70;2.40;;;;;-1.40;92888.00;;;;7401914;19;20584;-75
2023/03/11 01:39:43;;;;;;;3.60;2.53;;;;;-1.60;92879.00;;;;7401965;19;20604;-74
2023/03/11 01:42:17;;;;;;;6.37;2.50;;;;;-1.80;92886.00;;;;7400278;19;20117;-74
2023/03/11 01:44:51;;;;;;;3.70;2.53;;;;;-1.50;92887.00;;;;7403072;19;20146;-75
2023/03/11 01:47:35;;;;;;;3.47;2.20;;;;;-1.70;92885.00;;;;7401252;19;20125;-74
2023/03/11 01:50:12;;;;;;;6.50;2.70;;;;;-1.70;92890.00;;;;7401524;19;20129;-75
2023/03/11 01:52:47;;;;;;;2.87;2.03;;;;;-1.80;92890.00;;;;7403054;19;20120;-76
2023/03/11 01:55:17;;;;;;;2.83;2.20;;;;;-2.00;92884.00;;;;7400957;19;20487;-74
2023/03/11 01:57:53;;;;;;;2.23;1.60;;;;;-2.00;92887.00;;;;7402806;19;20117;-75
2023/03/11 02:00:27;;;;;;;2.20;1.97;;;;;-2.10;92889.00;;;;7401431;19;20128;-73
2023/03/11 02:03:06;;;;;;;2.37;1.70;;;;;-2.20;92889.00;;;;7394096;19;20650;-73
2023/03/11 02:05:40;;;;;;;2.20;1.70;;;;;-2.10;92889.00;;;;7402395;19;20121;-72
2023/03/11 02:08:08;;;;;;;4.00;1.80;;;;;-2.00;92903.00;;;;7401145;19;20658;-73
2023/03/11 02:10:42;;;;;;;4.50;1.80;;;;;-2.20;92902.00;;;;7398830;19;20160;-70
2023/03/11 02:13:17;;;;;;;4.03;1.90;;;;;-2.30;92889.00;;;;7398869;19;20172;-70
2023/03/11 02:15:51;;;;;;;3.13;1.90;;;;;-2.30;92903.00;;;;7397869;19;20608;-70
2023/03/11 02:18:19;;;;;;;3.00;1.73;;;;;-2.40;92896.00;;;;7401811;19;20150;-70
2023/03/11 02:21:15;;;;;;;2.00;1.80;;;;;-2.30;92896.00;;;;7401595;19;20136;-71
2023/03/11 02:24:11;;;;;;;2.90;1.40;;;;;-2.50;92910.00;;;;7398245;19;20544;-71
2023/03/11 02:27:25;;;;;;;5.97;1.73;;;;;-2.60;92901.00;;;;7396954;19;20160;-70
2023/03/11 02:30:01;;;;;;;2.73;1.80;;;;;-2.60;92884.00;;;;7397656;19;20615;-70
2023/03/11 02:32:29;;;;;;;4.23;1.70;;;;;-2.50;92911.00;;;;7398634;19;20136;-70
2023/03/11 02:35:04;;;;;;;2.80;1.60;;;;;-2.70;92902.00;;;;7398320;19;20605;-70
2023/03/11 02:37:32;;;;;;;3.63;2.20;;;;;-2.80;92900.00;;;;7400347;19;20129;-70
2023/03/11 02:40:37;;;;;;;6.83;1.60;;;;;-2.70;92906.00;;;;7401132;19;20203;-70
2023/03/11 02:43:14;;;;;;;2.67;1.63;;;;;-2.50;92884.00;;;;7398989;19;20148;-70
2023/03/11 02:45:44;;;;;;;2.20;1.50;;;;;-2.50;92877.00;;;;7398950;19;20136;-71
2023/03/11 02:48:19;;;;;;;2.90;1.37;;;;;-2.70;92884.00;;;;7399219;19;20496;-71
2023/03/11 02:50:53;;;;;;;2.47;1.40;;;;;-2.80;92882.00;;;;7399071;19;20158;-70
2023/03/11 02:53:21;;;;;;;3.50;1.60;;;;;-2.90;92896.00;;;;7401169;19;20121;-70
2023/03/11 02:55:55;;;;;;;4.07;1.70;;;;;-2.80;92910.00;;;;7398176;19;20154;-70
2023/03/11 02:58:29;;;;;;;3.23;1.57;;;;;-2.90;92924.00;;;;7397511;19;20153;-70
2023/03/11 03:01:03;;;;;;;4.73;1.43;;;;;-2.90;92918.00;;;;7400220;19;20145;-70
2023/03/11 03:03:37;;;;;;;3.00;1.70;;;;;-3.00;92917.00;;;;7397287;19;20255;-70
2023/03/11 03:06:11;;;;;;;3.87;1.97;;;;;-3.00;92936.00;;;;7400856;19;20131;-70
2023/03/11 03:08:39;;;;;;;3.00;1.53;;;;;-3.10;92937.00;;;;7398040;19;20582;-70
2023/03/11 03:11:13;;;;;;;4.93;1.70;;;;;-3.10;92920.00;;;;7398508;19;20143;-70
2023/03/11 03:13:40;;;;;;;2.50;1.57;;;;;-3.10;92917.00;;;;7399730;19;20209;-70
2023/03/11 03:16:14;;;;;;;3.63;1.80;;;;;-3.30;92909.00;;;;7398014;19;20160;-70
2023/03/11 03:18:41;;;;;;;2.90;1.87;;;;;-3.40;92905.00;;;;7398766;19;20144;-71
2023/03/11 03:21:15;;;;;;;5.87;2.30;;;;;-3.40;92905.00;;;;7395398;19;20636;-70
2023/03/11 03:23:49;;;;;;;8.30;2.10;;;;;-3.40;92896.00;;;;7397466;19;20466;-70
2023/03/11 03:26:16;;;;;;;6.80;2.00;;;;;-3.30;92894.00;;;;7395178;19;20522;-70
2023/03/11 03:28:50;;;;;;;4.17;2.50;;;;;-3.40;92900.00;;;;7397775;19;20159;-69
2023/03/11 03:31:17;;;;;;;4.03;2.30;;;;;-3.40;92906.00;;;;7399883;19;20132;-70
2023/03/11 03:33:51;;;;;;;8.47;2.10;;;;;-3.50;92918.00;;;;7394477;19;20139;-70
2023/03/11 03:36:18;;;;;;;7.20;2.00;;;;;-3.40;92931.00;;;;7399512;19;20652;-70
2023/03/11 03:38:58;;;;;;;3.10;2.00;;;;;-3.50;92935.00;;;;7398658;19;20139;-70
2023/03/11 03:41:32;;;;;;;9.03;2.40;;;;;-3.40;92941.00;;;;7398853;19;20174;-70
2023/03/11 03:44:07;;;;;;;3.83;1.97;;;;;-3.40;92940.00;;;;7396636;19;20151;-70
2023/03/11 03:46:34;;;;;;;4.50;2.13;;;;;-3.50;92950.00;;;;7396385;19;20175;-70
2023/03/11 03:49:08;;;;;;;4.13;2.27;;;;;-3.40;92959.00;;;;7397240;19;20141;-70
2023/03/11 03:51:42;;;;;;;5.30;2.40;;;;;-3.40;92953.00;;;;7399191;19;20600;-70
2023/03/11 03:54:09;;;;;;;5.53;2.33;;;;;-3.50;92958.00;;;;7396738;19;20179;-70
2023/03/11 03:56:44;;;;;;;3.83;2.20;;;;;-3.70;92960.00;;;;7396585;19;20481;-70
2023/03/11 03:59:11;;;;;;;11.73;2.30;;;;;-3.50;92962.00;;;;7398777;19;20184;-70
2023/03/11 04:01:45;;;;;;;6.07;2.37;;;;;-3.60;92962.00;;;;7395426;19;20160;-70
2023/03/11 04:04:26;;;;;;;4.73;2.10;;;;;-3.70;92963.00;;;;7395804;19;20522;-70
2023/03/11 04:07:02;;;;;;;5.43;2.13;;;;;-3.70;92969.00;;;;7396706;19;20625;-70
2023/03/11 04:09:39;;;;;;;5.03;2.20;;;;;-3.70;92972.00;;;;7394951;19;20156;-70
2023/03/11 04:12:14;;;;;;;5.17;2.37;;;;;-3.70;92966.00;;;;7396255;19;20159;-70
2023/03/11 04:14:48;;;;;;;4.63;1.90;;;;;-3.80;92969.00;;;;7395092;19;20138;-70
2023/03/11 04:17:16;;;;;;;5.10;2.50;;;;;-3.90;92965.00;;;;7395638;19;20178;-70
2023/03/11 04:19:51;;;;;;;4.00;2.10;;;;;-3.70;92958.00;;;;7396567;19;20133;-70
2023/03/11 04:22:19;;;;;;;6.77;2.07;;;;;-3.70;92975.00;;;;7397671;19;20134;-70
2023/03/11 04:24:54;;;;;;;5.50;2.20;;;;;-3.80;92968.00;;;;7392833;19;20136;-70
2023/03/11 04:27:21;;;;;;;4.90;2.07;;;;;-3.80;92970.00;;;;7396568;19;20168;-70
2023/03/11 04:29:55;;;;;;;10.60;2.33;;;;;-3.70;92967.00;;;;7397863;19;20619;-70
2023/03/11 04:32:24;;;;;;;4.90;2.00;;;;;-3.70;92962.00;;;;7397943;19;20135;-70
2023/03/11 04:34:51;;;;;;;5.53;2.27;;;;;-3.70;92960.00;;;;7398305;19;20133;-70
2023/03/11 04:37:29;;;;;;;7.67;2.33;;;;;-3.70;92955.00;;;;7395949;19;20142;-70
2023/03/11 04:40:05;;;;;;;5.13;2.10;;;;;-3.80;92973.00;;;;7396735;19;20197;-70
2023/03/11 04:42:39;;;;;;;7.70;2.10;;;;;-3.80;92972.00;;;;7396185;19;20594;-70
2023/03/11 04:45:13;;;;;;;5.03;2.10;;;;;-3.80;92976.00;;;;7396396;19;20147;-70
2023/03/11 04:47:41;;;;;;;4.80;2.30;;;;;-3.80;92967.00;;;;7403743;19;20159;-70
2023/03/11 04:50:16;;;;;;;3.53;2.00;;;;;-3.80;92972.00;;;;7403580;19;20187;-69
2023/03/11 04:52:44;;;;;;;7.77;1.90;;;;;-3.80;92979.00;;;;7403120;19;20477;-69
2023/03/11 04:55:18;;;;;;;3.50;1.90;;;;;-3.60;92979.00;;;;7401719;19;20143;-69
2023/03/11 04:57:45;;;;;;;5.40;2.30;;;;;-3.80;92980.00;;;;7404466;19;20140;-70
2023/03/11 05:00:23;;;;;;;5.37;2.30;;;;;-3.80;92979.00;;;;7403138;19;20124;-69
2023/03/11 05:02:52;;;;;;;7.50;2.00;;;;;-3.80;92992.00;;;;7400597;19;20185;-69
2023/03/11 05:05:26;;;;;;;3.83;2.20;;;;;-3.90;92990.00;;;;7403862;19;20135;-69
2023/03/11 05:07:53;;;;;;;5.83;2.27;;;;;-3.90;92992.00;;;;7400830;19;20157;-70
2023/03/11 05:10:27;;;;;;;9.70;2.20;;;;;-3.90;92989.00;;;;7404965;19;20521;-70
2023/03/11 05:13:01;;;;;;;5.70;2.20;;;;;-4.00;92980.00;;;;7403142;19;20141;-70
2023/03/11 05:15:35;;;;;;;13.67;2.50;;;;;-3.80;92980.00;;;;7402354;19;20525;-70
2023/03/11 05:18:09;;;;;;;8.33;2.00;;;;;-3.80;92980.00;;;;7401784;19;20222;-70
2023/03/11 05:20:43;;;;;;;6.23;1.93;;;;;-3.90;92992.00;;;;7402197;19;20138;-70
2023/03/11 05:23:10;;;;;;;6.37;2.40;;;;;-4.00;92989.00;;;;7400491;19;20199;-70
2023/03/11 05:25:44;;;;;;;7.30;2.50;;;;;-3.90;92994.00;;;;7395420;19;20594;-70
2023/03/11 05:28:12;;;;;;;7.73;2.30;;;;;-3.90;92994.00;;;;7401245;19;20193;-70
2023/03/11 05:30:46;;;;;;;5.40;2.13;;;;;-3.90;92996.00;;;;7399730;19;20747;-70
2023/03/11 05:33:20;;;;;;;4.90;2.03;;;;;-4.10;93000.00;;;;7395769;19;20150;-70
2023/03/11 05:35:50;;;;;;;4.33;2.00;;;;;-4.00;93001.00;;;;7400898;19;20692;-70
2023/03/11 05:38:24;;;;;;;8.43;2.50;;;;;-3.70;92993.00;;;;7401765;19;20475;-70
2023/03/11 05:40:51;;;;;;;4.10;2.27;;;;;-4.00;92983.00;;;;7399200;19;20402;-70
2023/03/11 05:43:26;;;;;;;6.63;1.83;;;;;-4.00;92977.00;;;;7401756;19;20136;-70
2023/03/11 05:46:00;;;;;;;14.13;2.90;;;;;-4.20;92992.00;;;;7403401;19;20197;-70
2023/03/11 05:48:35;;;;;;;7.20;2.73;;;;;-4.30;93002.00;;;;7402982;19;20135;-71
2023/03/11 05:51:10;;;;;;;10.53;3.10;;;;;-4.10;93003.00;;;;7401238;19;20614;-70
2023/03/11 05:53:49;;;;;;;6.07;2.10;;;;;-4.00;93009.00;;;;7401369;19;20141;-69
2023/03/11 05:56:23;;;;;;;11.63;2.20;;;;;-4.00;93011.00;;;;7398337;19;20484;-69
2023/03/11 05:58:57;;;;;;;5.60;2.23;;;;;-4.20;92992.00;;;;7401853;19;20121;-69
2023/03/11 06:01:31;;;;;;;5.67;2.53;;;;;-4.10;93000.00;;;;7400294;19;20187;-69
2023/03/11 06:04:12;;;;;;;6.50;2.27;;;;;-3.90;93010.00;;;;7398464;19;20170;-69
2023/03/11 06:06:46;;;;;;;7.97;2.50;;;;;-3.90;93007.00;;;;7401162;19;20158;-69
2023/03/11 06:09:20;;;;;;;9.53;2.27;;;;;-3.90;93009.00;;;;7401965;19;20141;-71
2023/03/11 06:11:54;;;;;;;13.93;3.30;;;;;-3.70;93002.00;;;;7401336;19;20151;-71
2023/03/11 06:14:21;;;;;;;6.70;2.50;;;;;-3.30;93004.00;;;;7399736;19;20135;-69
2023/03/11 06:16:55;;;;;;;6.60;2.57;;;;;-3.20;92996.00;;;;7399805;19;20616;-72
2023/03/11 06:19:22;;;;;;;7.47;2.30;;;;;-3.10;93005.00;;;;7400483;19;20168;-71
2023/03/11 06:21:56;;;;;;;6.70;2.20;;;;;-3.20;93011.00;;;;7400500;19;20524;-71
2023/03/11 06:24:23;;;;;;;7.23;2.33;;;;;-3.20;93012.00;;;;7399021;19;20127;-71
2023/03/11 06:26:57;;;;;;;9.37;2.50;;;;;-3.00;93019.00;;;;7397797;19;20488;-71
2023/03/11 06:29:25;;;;;;;5.20;2.10;;;;;-2.80;93022.00;;;;7401597;19;20594;-71
2023/03/11 06:31:55;;;;;;;6.27;1.87;;;;;-2.60;93018.00;;;;7401495;19;20520;-71
2023/03/11 06:34:28;;;;;;;2.90;1.77;;;;;-2.00;93017.00;;;;7401065;19;20124;-71
2023/03/11 06:36:56;;;;;;;9.27;2.63;;;;;-1.90;93029.00;;;;7397928;19;20196;-71
2023/03/11 06:39:30;;;;;;;7.63;2.30;;;;;-1.60;93029.00;;;;7400894;19;20543;-72
2023/03/11 06:41:58;;;;;;;5.10;1.90;;;;;-1.70;93031.00;;;;7395112;19;20137;-73
2023/03/11 06:44:32;;;;;;;5.33;2.20;;;;;-1.50;93037.00;;;;7397983;19;20491;-74
2023/03/11 06:47:06;;;;;;;5.60;2.17;;;;;-1.70;93060.00;;;;7401328;19;20511;-74
2023/03/11 06:49:41;;;;;;;10.57;2.13;;;;;-1.80;93052.00;;;;7395977;19;20576;-74
2023/03/11 06:52:15;;;;;;;9.73;2.10;;;;;-1.90;93048.00;;;;7398319;19;20156;-73
2023/03/11 06:54:49;;;;;;;9.23;1.90;;;;;-2.10;93043.00;;;;7399122;19;20152;-74
2023/03/11 06:57:16;;;;;;;8.77;2.13;;;;;-1.90;93051.00;;;;7400467;19;20244;-73
2023/03/11 06:59:44;;;;;;;14.27;2.20;;;;;-2.20;93053.00;;;;7389732;19;20560;-72
2023/03/11 07:02:18;;;;;;;8.23;2.10;;;;;-2.30;93064.00;;;;7394613;19;20144;-73
2023/03/11 07:04:59;;;;;;;4.20;1.83;;;;;-2.40;93066.00;;;;7396633;19;20159;-74
2023/03/11 07:07:37;;;;;;;6.63;1.80;;;;;-2.30;93065.00;;;;7397087;19;20482;-74
2023/03/11 07:10:11;;;;;;;5.73;1.77;;;;;-2.30;93065.00;;;;7398021;19;20208;-73
2023/03/11 07:13:05;;;;;;;4.43;1.90;;;;;-2.10;93061.00;;;;7397989;19;20152;-73
2023/03/11 07:15:39;;;;;;;7.63;2.00;;;;;-2.40;93068.00;;;;7395752;19;20481;-72
2023/03/11 07:18:13;;;;;;;6.03;1.63;;;;;-2.10;93088.00;;;;7397449;19;20140;-72
2023/03/11 07:20:47;;;;;;;5.53;1.50;;;;;-2.10;93087.00;;;;7396940;19;20148;-73
2023/03/11 07:23:21;;;;;;;6.60;1.77;;;;;-1.40;93095.00;;;;7397587;19;20137;-73
2023/03/11 07:25:51;;;;;;;8.17;1.97;;;;;-0.80;93079.00;;;;7392933;19;20526;-75
2023/03/11 07:28:27;;;;;;;8.20;1.73;;;;;-0.80;93100.00;;;;7398711;19;20124;-74
2023/03/11 07:30:55;;;;;;;12.90;1.80;;;;;-0.60;93083.00;;;;7395567;19;20146;-75
2023/03/11 07:33:23;;;;;;;8.40;1.93;;;;;-0.60;93032.00;;;;7398414;19;20250;-76
2023/03/11 07:36:07;;;;;;;5.13;2.10;;;;;-0.40;93081.00;;;;7396137;19;20132;-76
2023/03/11 07:38:35;;;;;;;7.40;1.60;;;;;-0.20;93083.00;;;;7396705;19;20137;-77
2023/03/11 07:41:11;;;;;;;4.97;1.80;;;;;0.40;93108.00;;;;7395600;19;20471;-77
2023/03/11 07:43:44;;;;;;;4.87;1.43;;;;;0.20;93095.00;;;;7396392;19;20136;-76
2023/03/11 07:46:18;;;;;;;7.77;1.80;;;;;0.60;93103.00;;;;7394975;19;20172;-76
2023/03/11 07:48:46;;;;;;;4.17;1.50;;;;;-0.60;93120.00;;;;7396161;19;20149;-76
2023/03/11 07:51:24;;;;;;;6.50;2.00;;;;;-0.40;93117.00;;;;7395249;19;20144;-77
2023/03/11 07:53:56;;;;;;;6.10;1.33;;;;;-0.90;93119.00;;;;7397665;19;20137;-76
2023/03/11 07:56:33;;;;;;;7.17;1.63;;;;;-1.10;93124.00;;;;7395368;19;20129;-77
2023/03/11 07:59:02;;;;;;;3.97;1.70;;;;;-1.40;93120.00;;;;7398776;19;20150;-77
2023/03/11 08:01:39;;;;;;;5.27;1.30;;;;;-0.60;93109.00;;;;7395747;19;20146;-77
2023/03/11 08:04:15;;;;;;;4.33;1.30;;;;;-0.20;93113.00;;;;7392426;19;20614;-77
2023/03/11 08:06:49;;;;;;;4.33;1.20;;;;;0.30;93120.00;;;;7396556;19;20457;-77
2023/03/11 08:09:23;;;;;;;8.27;1.60;;;;;0.10;93124.00;;;;7397396;19;20125;-77
2023/03/11 08:11:57;;;;;;;4.07;1.13;;;;;0.30;93109.00;;;;7394267;19;20584;-77
2023/03/11 08:14:25;;;;;;;6.67;1.30;;;;;1.00;93120.00;;;;7393740;19;20559;-78
2023/03/11 08:17:01;;;;;;;8.20;1.43;;;;;0.50;93119.00;;;;7394034;19;20136;-78
2023/03/11 08:19:35;;;;;;;7.23;1.27;;;;;1.10;93121.00;;;;7396863;19;20132;-78
2023/03/11 08:22:09;;;;;;;10.53;1.43;;;;;1.80;93123.00;;;;7402311;19;20212;-77
2023/03/11 08:24:39;;;;;;;3.00;1.10;;;;;0.90;93129.00;;;;7398801;19;20124;-78
2023/03/11 08:27:13;;;;;;;4.30;1.30;;;;;0.70;93130.00;;;;7403053;19;20143;-78
2023/03/11 08:29:41;;;;;;;3.73;1.40;;;;;0.10;93133.00;;;;7404304;19;20125;-79
2023/03/11 08:32:15;;;;;;;5.57;1.37;;;;;0.70;93126.00;;;;7401252;19;20125;-79
2023/03/11 08:34:49;;;;;;;2.37;1.10;;;;;2.30;93125.00;;;;7404353;19;20579;-78
2023/03/11 08:37:23;;;;;;;3.83;1.53;;;;;3.50;93125.00;;;;7399966;19;20156;-80
2023/03/11 08:39:51;;;;;;;4.97;1.43;;;;;3.80;93130.00;;;;7399590;19;20166;-80
2023/03/11 08:42:25;;;;;;;4.43;1.23;;;;;3.20;93140.00;;;;7404229;19;20472;-81
2023/03/11 08:44:53;;;;;;;4.60;1.67;;;;;2.80;93133.00;;;;7400790;19;20133;-81
2023/03/11 08:47:35;;;;;;;4.63;1.10;;;;;3.90;93133.00;;;;7402601;19;20141;-80
2023/03/11 08:50:05;;;;;;;5.20;1.53;;;;;4.50;93125.00;;;;7403697;19;20136;-80
2023/03/11 08:52:40;;;;;;;4.60;1.33;;;;;4.10;93128.00;;;;7401152;19;20132;-80
2023/03/11 08:55:17;;;;;;;2.47;1.10;;;;;3.90;93130.00;;;;7403634;19;20527;-80
2023/03/11 08:57:46;;;;;;;3.17;1.13;;;;;4.90;93133.00;;;;7401413;19;20133;-80
2023/03/11 09:00:21;;;;;;;4.30;1.37;;;;;6.20;93133.00;;;;7400492;19;20596;-79
2023/03/11 09:02:49;;;;;;;3.80;1.27;;;;;6.60;93135.00;;;;7401070;19;20176;-79
2023/03/11 09:05:30;;;;;;;2.30;1.23;;;;;6.70;93141.00;;;;7392299;19;20925;-78
2023/03/11 09:07:57;;;;;;;3.83;0.90;;;;;7.30;93139.00;;;;7399638;19;20140;-80
2023/03/11 09:10:32;;;;;;;2.10;0.70;;;;;7.70;93129.00;;;;7398365;19;20180;-81
2023/03/11 09:13:08;;;;;;;4.57;1.88;;;;;7.00;93140.00;;;;7400613;19;20631;-80
2023/03/11 09:15:35;;;;;;;2.20;0.88;;;;;7.20;93138.00;;;;7398654;19;20132;-80
2023/03/11 09:21:18;;;;;;;2.58;0.70;;;;;8.50;93147.00;;;;7397310;19;20149;-78
2023/03/11 09:23:54;;;;;;;2.25;1.10;;;;;7.60;93160.00;;;;7391888;19;20147;-78
2023/03/11 09:26:22;;;;;;;1.15;1.05;;;;;7.20;93153.00;;;;7393620;19;20131;-80
2023/03/11 09:28:56;;;;;;;3.10;0.88;;;;;5.30;93155.00;;;;7397866;19;20131;-79
2023/03/11 09:31:30;;;;;;;1.30;0.68;;;;;3.80;93165.00;;;;7397010;19;20184;-78
2023/03/11 09:34:05;;;;;;;0.90;0.60;;;;;2.60;93177.00;;;;7396227;19;20133;-79
2023/03/11 09:36:33;;;;;;;1.73;0.80;;;;;2.10;93178.00;;;;7399376;19;20168;-79
2023/03/11 09:39:09;;;;;;;4.43;1.07;;;;;2.80;93174.00;;;;7396941;19;20518;-79
2023/03/11 09:41:45;;;;;;;1.23;0.70;;;;;2.60;93153.00;;;;7395620;19;20133;-78
2023/03/11 09:44:44;;;;;;;5.43;0.80;;;;;4.50;93145.00;;;;7394019;19;20220;-78
2023/03/11 09:48:07;;;;;;;2.93;0.73;;;;;7.00;93137.00;;;;7395570;19;20125;-78
2023/03/11 09:51:07;;;;;;;3.53;1.07;;;;;7.90;93135.00;;;;7395669;19;20169;-76
2023/03/11 09:53:41;;;;;;;1.90;0.77;;;;;9.40;93141.00;;;;7397126;19;20592;-77
2023/03/11 09:56:21;;;;;;;4.05;0.90;;;;;9.10;93133.00;;;;7396447;19;20196;-76
2023/03/11 09:58:55;;;;;;;2.85;0.80;;;;;9.80;93134.00;;;;7397965;19;20153;-76
2023/03/11 10:01:36;;;;;;;5.47;1.20;;;;;9.40;93145.00;;;;7397469;19;20144;-76
2023/03/11 10:04:19;;;;;;;2.33;1.10;;;;;8.50;93146.00;;;;7393845;19;20235;-76
2023/03/11 10:06:53;;;;;;;3.00;1.52;;;;;7.90;93177.00;;;;7388575;19;20156;-76
2023/03/11 10:09:23;;;;;;;2.78;1.10;;;;;5.60;93188.00;;;;7395158;19;20133;-75
2023/03/11 10:12:12;;;;;;;3.20;0.98;;;;;4.20;93188.00;;;;7395373;19;20143;-76
2023/03/11 10:15:15;;;;;;;2.43;1.20;;;;;2.50;93189.00;;;;7390333;19;20573;-77
2023/03/11 10:18:10;;;;;;;5.47;1.47;;;;;1.70;93193.00;;;;7395840;19;20580;-78
2023/03/11 10:21:02;;;;;;;3.57;0.97;;;;;1.50;93193.00;;;;7397333;19;20184;-77
2023/03/11 10:23:45;;;;;;;3.20;1.10;;;;;1.40;93197.00;;;;7396702;19;20152;-77
2023/03/11 10:26:21;;;;;;;1.93;0.80;;;;;1.90;93194.00;;;;7392095;19;20188;-77
2023/03/11 10:29:25;;;;;;;1.93;0.80;;;;;2.40;93195.00;;;;7394056;19;20144;-77
2023/03/11 10:32:19;;;;;;;3.80;0.90;;;;;2.10;93181.00;;;;7394241;19;20180;-75
2023/03/11 10:35:06;;;;;;;1.10;0.50;;;;;2.30;93184.00;;;;7394452;19;20137;-78
2023/03/11 10:37:53;;;;;;;2.20;0.70;;;;;2.10;93175.00;;;;7392790;19;20611;-77
2023/03/11 10:40:33;;;;;;;1.93;0.80;;;;;3.30;93181.00;;;;7394546;19;20147;-74
2023/03/11 10:43:26;;;;;;;2.20;0.77;;;;;2.00;93186.00;;;;7394044;19;20202;-75
2023/03/11 10:46:08;;;;;;;1.93;0.80;;;;;2.30;93177.00;;;;7391145;19;20166;-77
2023/03/11 10:48:41;;;;;;;2.83;0.90;;;;;2.20;93178.00;;;;7396172;19;20140;-75
2023/03/11 10:51:21;;;;;;;2.10;0.87;;;;;2.80;93177.00;;;;7390606;19;20619;-76
2023/03/11 10:53:57;;;;;;;2.43;1.07;;;;;3.90;93154.00;;;;7391581;19;20144;-76
2023/03/11 10:56:35;;;;;;;4.30;0.83;;;;;6.70;93161.00;;;;7393952;19;20196;-76
2023/03/11 10:59:45;;;;;;;1.60;0.80;;;;;8.50;93156.00;;;;7393624;19;20161;-76
2023/03/11 11:02:37;;;;;;;2.90;1.33;;;;;9.50;93160.00;;;;7390709;19;20183;-76
2023/03/11 11:05:37;;;;;;;2.58;0.80;;;;;10.10;93162.00;;;;7392665;19;20153;-76
2023/03/11 11:08:12;;;;;;;1.55;0.80;;;;;10.20;93153.00;;;;7396025;19;20429;-75
2023/03/11 11:10:55;;;;;;;2.78;0.75;;;;;9.90;93163.00;;;;7391164;19;20136;-76
2023/03/11 11:13:33;;;;;;;1.15;0.73;;;;;10.00;93155.00;;;;7393972;19;20608;-76
2023/03/11 11:16:14;;;;;;;2.15;0.90;;;;;10.60;93158.00;;;;7393699;19;20149;-76
2023/03/11 11:18:53;;;;;;;1.60;0.73;;;;;9.90;93160.00;;;;7394961;19;20136;-77
2023/03/11 11:21:38;;;;;;;2.13;0.63;;;;;8.80;93163.00;;;;7392648;19;20129;-76
2023/03/11 11:24:23;;;;;;;1.73;0.55;;;;;9.20;93147.00;;;;7393754;19;20133;-75
2023/03/11 11:27:10;;;;;;;2.33;1.80;;;;;10.50;93152.00;;;;7390448;19;20164;-74
2023/03/11 11:29:38;;;;;;;1.50;0.80;;;;;11.70;93144.00;;;;7394733;19;20136;-75
2023/03/11 11:32:17;;;;;;;4.65;0.95;;;;;10.80;93144.00;;;;7395088;19;20128;-76
2023/03/11 11:34:57;;;;;;;2.63;1.00;;;;;10.50;93146.00;;;;7391953;19;20160;-75
2023/03/11 11:37:40;;;;;;;3.38;1.05;;;;;11.50;93135.00;;;;7393556;19;20448;-75
2023/03/11 11:40:23;;;;;;;2.78;0.82;;;;;11.80;93141.00;;;;7395951;19;20136;-74
2023/03/11 11:43:11;;;;;;;2.22;0.90;;;;;11.90;93141.00;;;;7393383;19;20133;-75
2023/03/11 11:45:45;;;;;;;2.88;1.00;;;;;11.90;93176.00;;;;7391181;19;20145;-74
2023/03/11 11:48:46;;;;;;;2.55;0.80;;;;;9.10;93151.00;;;;7391169;19;20628;-76
2023/03/11 11:51:20;;;;;;;3.65;0.80;;;;;8.60;93146.00;;;;7394251;19;20160;-78
2023/03/11 11:54:01;;;;;;;1.08;0.70;;;;;9.40;93177.00;;;;7392106;19;20133;-77
2023/03/11 11:56:29;;;;;;;2.13;0.82;;;;;7.70;93179.00;;;;7391372;19;20177;-77
2023/03/11 11:59:13;;;;;;;1.20;0.90;;;;;5.60;93182.00;;;;7386835;19;20165;-77
2023/03/11 12:01:50;;;;;;;2.60;0.90;;;;;5.60;93168.00;;;;7389353;19;20156;-76
2023/03/11 12:04:43;;;;;;;2.50;0.77;;;;;5.20;93171.00;;;;7387724;19;20507;-75
2023/03/11 12:07:40;;;;;;;2.17;0.70;;;;;5.40;93161.00;;;;7386301;19;20157;-75
2023/03/11 12:10:26;;;;;;;3.03;0.70;;;;;5.50;93167.00;;;;7394789;19;20592;-73
2023/03/11 12:13:13;;;;;;;1.30;0.53;;;;;5.60;93157.00;;;;7392905;19;20901;-74
2023/03/11 12:16:20;;;;;;;2.63;0.90;;;;;5.60;93156.00;;;;7393281;19;20164;-74
2023/03/11 12:19:01;;;;;;;1.63;0.70;;;;;6.20;93154.00;;;;7390447;19;20173;-75
2023/03/11 12:21:50;;;;;;;2.00;0.80;;;;;6.50;93134.00;;;;7392733;19;20567;-74
2023/03/11 12:24:59;;;;;;;2.07;0.97;;;;;6.50;93144.00;;;;7391981;19;20175;-74
2023/03/11 12:27:40;;;;;;;1.27;0.80;;;;;7.40;93155.00;;;;7393628;19;20129;-74
2023/03/11 12:30:22;;;;;;;2.80;0.97;;;;;7.80;93144.00;;;;7393032;19;20133;-74
2023/03/11 12:32:59;;;;;;;1.52;0.80;;;;;8.00;93152.00;;;;7391561;19;20148;-74
2023/03/11 12:35:35;;;;;;;3.23;1.00;;;;;7.70;93126.00;;;;7391136;19;20828;-74
2023/03/11 12:38:28;;;;;;;1.60;0.85;;;;;9.40;93136.00;;;;7391110;19;20156;-74
2023/03/11 12:41:14;;;;;;;3.55;1.20;;;;;10.80;93128.00;;;;7392528;19;20752;-75
2023/03/11 12:43:47;;;;;;;3.20;1.10;;;;;11.70;93152.00;;;;7392710;19;20201;-75
2023/03/11 12:46:19;;;;;;;2.55;1.05;;;;;10.70;93154.00;;;;7388887;19;20148;-74
2023/03/11 12:49:12;;;;;;;1.17;0.88;;;;;9.70;93113.00;;;;7390375;19;20137;-74
2023/03/11 12:52:02;;;;;;;1.92;1.00;;;;;9.40;93132.00;;;;7390166;19;20141;-73
2023/03/11 12:54:35;;;;;;;1.30;0.88;;;;;8.40;93111.00;;;;7389800;19;20160;-74
2023/03/11 12:57:29;;;;;;;3.28;0.95;;;;;9.10;93159.00;;;;7391692;19;20608;-74
2023/03/11 13:00:41;;;;;;;3.40;1.27;;;;;9.50;93131.00;;;;7390909;19;20604;-74
2023/03/11 13:03:24;;;;;;;2.70;1.30;;;;;10.60;93147.00;;;;7389692;19;20172;-74
2023/03/11 13:06:25;;;;;;;3.22;1.20;;;;;9.20;93159.00;;;;7391881;19;20643;-74
2023/03/11 13:08:56;;;;;;;1.25;0.85;;;;;9.10;93121.00;;;;7400074;19;20607;-74